KTPF/TPF METAR and TAF weather

Enter ICAO airport designator
Station Type Date Time Source
KTPF METAR 2019/04/20 18:35 UTC NOAA

KTPF 201835Z AUTO 30012G20KT 10SM CLR 22/09 A3002 RMK AO2


Station Type Date Time Source
KTPF Decoded METAR 2019/04/20 18:35 UTC NOAA

Tampa, Peter O Knight Airport, FL, United States (KTPF) 27-54-56N 082-26-57W
Apr 20, 2019 - 02:35 PM EDT / 2019.04.20 1835 UTC
Wind: from the WNW (300 degrees) at 14 MPH (12 KT) gusting to 23 MPH (20 KT):0
Visibility: 10 mile(s):0
Sky conditions: clear
Temperature: 71 F (22 C)
Dew Point: 48 F (9 C)
Relative Humidity: 43%
Pressure (altimeter): 30.02 in. Hg (1016 hPa)
ob: KTPF 201835Z AUTO 30012G20KT 10SM CLR 22/09 A3002 RMK AO2
cycle: 18

Station Type Date Time Source
KTPF TAF UTC NOAA

Error!

Example: see airport list